Orbital elements of FENGYUN 1C DEB
| Launched | 9 May 1999 |
| Flight ended | – |
| Launch site | Taiyuan Space Center, PRC |
| Owner | People's Republic of China |
| NORAD ID | 43359 |
| Date fetched |
Epoch osculation |
Inc. [°] |
Ecc. | RA asc node [hr] |
Arg Peri. [°] |
Mean anom [°] |
Mean motion [rev/day] |
Abs. mag |
| Date fetched |
Epoch osculation |
Inc. [°] |
Ecc. | RA asc node [hr] |
Arg Peri. [°] |
Mean anom [°] |
Mean motion [rev/day] |
Abs. mag |
| 2026 May 03 17:57 | 2026 Apr 29 17:46:39 | 99.0443 | 0.00710 | 13.9156 | 339.3329 | 20.4982 | 14.24635 | – |
| 2026 May 02 17:57 | 2026 Apr 29 17:46:39 | 99.0443 | 0.00710 | 13.9156 | 339.3329 | 20.4982 | 14.24635 | – |
| 2026 May 01 17:56 | 2026 Apr 29 17:46:39 | 99.0443 | 0.00710 | 13.9156 | 339.3329 | 20.4982 | 14.24635 | – |
| 2026 Apr 30 17:56 | 2026 Apr 29 17:46:39 | 99.0443 | 0.00710 | 13.9156 | 339.3329 | 20.4982 | 14.24635 | – |
| 2026 Apr 29 17:57 | 2026 Apr 24 04:36:56 | 99.0435 | 0.00713 | 13.5346 | 355.6190 | 20.4982 | 14.24635 | – |
| 2026 Apr 28 17:56 | 2026 Apr 24 04:36:56 | 99.0435 | 0.00713 | 13.5346 | 355.6190 | 20.4982 | 14.24635 | – |
| 2026 Apr 27 17:58 | 2026 Apr 24 04:36:56 | 99.0435 | 0.00713 | 13.5346 | 355.6190 | 20.4982 | 14.24635 | – |
| 2026 Apr 26 17:58 | 2026 Apr 24 04:36:56 | 99.0435 | 0.00713 | 13.5346 | 355.6190 | 20.4982 | 14.24635 | – |
| 2026 Apr 25 17:58 | 2026 Apr 24 04:36:56 | 99.0435 | 0.00713 | 13.5346 | 355.6190 | 20.4982 | 14.24635 | – |
| 2026 Apr 24 17:59 | 2026 Apr 24 04:36:56 | 99.0435 | 0.00713 | 13.5346 | 355.6190 | 20.4982 | 14.24635 | – |
| 2026 Apr 23 17:57 | 2026 Apr 19 04:56:07 | 99.0436 | 0.00718 | 13.1923 | 10.5234 | 20.4982 | 14.24635 | – |
| 2026 Apr 22 17:57 | 2026 Apr 19 04:56:07 | 99.0436 | 0.00718 | 13.1923 | 10.5234 | 20.4982 | 14.24635 | – |
| 2026 Apr 21 17:57 | 2026 Apr 19 04:56:07 | 99.0436 | 0.00718 | 13.1923 | 10.5234 | 20.4982 | 14.24635 | – |
| 2026 Apr 20 17:57 | 2026 Apr 19 04:56:07 | 99.0436 | 0.00718 | 13.1923 | 10.5234 | 20.4982 | 14.24635 | – |
| 2026 Apr 19 17:58 | 2026 Apr 19 04:56:07 | 99.0436 | 0.00718 | 13.1923 | 10.5234 | 20.4982 | 14.24635 | – |
| 2026 Apr 18 17:56 | 2026 Apr 12 04:22:02 | 99.0428 | 0.00724 | 12.7102 | 31.1534 | 20.4982 | 14.24635 | – |
| 2026 Apr 16 17:57 | 2026 Apr 12 04:22:02 | 99.0428 | 0.00724 | 12.7102 | 31.1534 | 20.4982 | 14.24635 | – |
| 2026 Apr 14 17:57 | 2026 Apr 12 04:22:02 | 99.0428 | 0.00724 | 12.7102 | 31.1534 | 20.4982 | 14.24635 | – |
| 2026 Apr 13 17:57 | 2026 Apr 12 04:22:02 | 99.0428 | 0.00724 | 12.7102 | 31.1534 | 20.4982 | 14.24635 | – |
| 2026 Apr 12 17:57 | 2026 Apr 08 04:16:54 | 99.0428 | 0.00730 | 12.4354 | 42.8847 | 20.4982 | 14.24635 | – |
| 2026 Apr 11 17:57 | 2026 Apr 08 04:16:54 | 99.0428 | 0.00730 | 12.4354 | 42.8847 | 20.4982 | 14.24635 | – |
| 2026 Apr 10 17:58 | 2026 Apr 08 04:16:54 | 99.0428 | 0.00730 | 12.4354 | 42.8847 | 20.4982 | 14.24635 | – |
| 2026 Apr 09 18:01 | 2026 Apr 08 04:16:54 | 99.0428 | 0.00730 | 12.4354 | 42.8847 | 20.4982 | 14.24635 | – |
| 2026 Apr 08 17:57 | 2026 Apr 08 04:16:54 | 99.0428 | 0.00730 | 12.4354 | 42.8847 | 20.4982 | 14.24635 | – |
| 2026 Apr 07 17:57 | 2026 Apr 02 04:59:30 | 99.0437 | 0.00738 | 12.0256 | 60.1549 | 20.4982 | 14.24635 | – |
| 2026 Apr 06 17:57 | 2026 Apr 02 04:59:30 | 99.0437 | 0.00738 | 12.0256 | 60.1549 | 20.4982 | 14.24635 | – |